Culp Creek, Oregon
Current Conditions -  °F | °C
As of 4:54 PM on Monday 26 Jan 2015 (Local Time) from KEUG Reporting Station
Broken Clouds Broken Clouds  
Wind Chill: 52°   Ceiling: 28000
Heat Index: 52°   Visibility: 10mi
Dew Point: 49°   Wind: 8mph
Humidity: 89%   Direction: 350°N
Pressure: 29.96"   Gusts: NA
Location:  43.7°N, 122.85°W
Report Text: KEUG 270054Z 35007KT 10SM FEW200 BKN280 11/09 A2996 RMK AO2 SLP146 T01110094
Loading
Personal Weather Stations






























Interactive Weather Map New forecast layout! Learn more

10-Day Weather Forecast

Advertisements
Track Severe Weather on mobile